createdAt,value
2022-12-16T00:01:29.033Z,16.35
2022-12-16T00:03:58.703Z,16.20
2022-12-16T00:06:29.732Z,18.48
2022-12-16T00:08:57.287Z,17.08
2022-12-16T00:11:25.175Z,17.45
2022-12-16T00:13:53.133Z,16.48
2022-12-16T00:16:22.954Z,14.13
2022-12-16T00:18:51.799Z,15.82
2022-12-16T00:21:20.721Z,18.35
2022-12-16T00:23:48.509Z,16.00
2022-12-16T00:26:16.294Z,14.40
2022-12-16T00:28:44.059Z,16.33
2022-12-16T00:31:12.649Z,15.18
2022-12-16T00:33:40.521Z,14.98
2022-12-16T00:36:08.683Z,18.23
2022-12-16T00:38:36.280Z,14.65
2022-12-16T00:41:04.065Z,12.77
2022-12-16T00:43:32.123Z,13.80
2022-12-16T00:46:00.132Z,12.30
2022-12-16T00:48:27.716Z,12.05
2022-12-16T00:50:56.063Z,13.07
2022-12-16T00:53:25.382Z,10.40
2022-12-16T00:56:04.335Z,10.10
2022-12-16T00:58:32.176Z,12.32
2022-12-16T01:01:00.076Z,12.13
2022-12-16T01:03:27.727Z,15.02
2022-12-16T01:05:55.506Z,13.93
2022-12-16T01:08:23.289Z,16.77
2022-12-16T01:10:53.288Z,15.25
2022-12-16T01:13:24.903Z,21.75
2022-12-16T01:15:52.647Z,15.82
2022-12-16T01:18:20.626Z,17.83
2022-12-16T01:20:48.337Z,16.88
2022-12-16T01:23:15.970Z,15.95
2022-12-16T01:25:43.616Z,17.10
2022-12-16T01:28:11.074Z,16.70
2022-12-16T01:30:38.736Z,18.02
2022-12-16T01:33:06.591Z,15.32
2022-12-16T01:38:21.819Z,18.77
2022-12-16T01:40:49.481Z,16.70
2022-12-16T01:43:18.250Z,15.75
2022-12-16T01:45:45.864Z,15.55
2022-12-16T01:48:13.467Z,12.80
2022-12-16T01:50:41.846Z,15.07
2022-12-16T01:53:10.091Z,12.52
2022-12-16T01:55:49.833Z,11.13
2022-12-16T01:58:23.052Z,11.38
2022-12-16T02:00:50.930Z,12.90
2022-12-16T02:03:18.982Z,12.73
2022-12-16T02:05:47.465Z,11.20
2022-12-16T02:08:19.168Z,12.50
2022-12-16T02:14:19.952Z,14.35
2022-12-16T02:17:12.537Z,12.88
2022-12-16T02:19:52.616Z,14.00
2022-12-16T02:22:45.608Z,14.13
2022-12-16T02:25:41.990Z,18.30
2022-12-16T02:31:19.986Z,15.45
2022-12-16T02:34:00.021Z,14.63
2022-12-16T02:37:00.093Z,20.90
2022-12-16T02:39:40.176Z,17.35
2022-12-16T02:42:18.098Z,16.45
2022-12-16T02:47:33.998Z,16.65
2022-12-16T02:50:01.855Z,14.95
2022-12-16T02:52:33.708Z,16.42
2022-12-16T02:55:05.082Z,16.40
2022-12-16T02:57:56.951Z,18.35
2022-12-16T03:00:25.482Z,16.88
2022-12-16T03:03:20.616Z,14.75
2022-12-16T03:05:50.813Z,14.75
2022-12-16T03:08:31.474Z,16.63
2022-12-16T03:11:02.944Z,16.40
2022-12-16T03:13:35.634Z,13.80
2022-12-16T03:16:06.393Z,14.57
2022-12-16T03:21:22.385Z,14.63
2022-12-16T03:24:00.898Z,13.40
2022-12-16T03:26:37.711Z,15.35
2022-12-16T03:29:22.345Z,12.48
2022-12-16T03:31:57.676Z,12.93
2022-12-16T03:37:34.771Z,12.40
2022-12-16T03:40:06.084Z,13.52
2022-12-16T03:42:35.178Z,12.73
2022-12-16T03:45:05.102Z,12.93
2022-12-16T03:47:32.678Z,12.05
2022-12-16T03:50:00.313Z,13.35
2022-12-16T03:55:14.038Z,12.68
2022-12-16T03:57:41.560Z,12.60
2022-12-16T04:00:10.474Z,14.25
2022-12-16T04:02:41.090Z,14.40
2022-12-16T04:05:09.600Z,13.30
2022-12-16T04:10:42.268Z,14.20
2022-12-16T04:13:32.793Z,16.90
2022-12-16T04:16:22.843Z,18.30
2022-12-16T04:19:09.137Z,17.35
2022-12-16T04:21:55.578Z,16.70
2022-12-16T04:27:25.048Z,19.20
2022-12-16T04:30:13.054Z,17.80
2022-12-16T04:32:59.897Z,20.58
2022-12-16T04:35:46.025Z,18.00
2022-12-16T04:38:32.338Z,20.90
2022-12-16T04:44:22.774Z,21.05
2022-12-16T04:47:09.451Z,22.70
2022-12-16T04:49:56.610Z,23.27
2022-12-16T04:52:43.184Z,23.25
2022-12-16T04:55:30.496Z,26.02
2022-12-16T05:01:23.562Z,26.48
2022-12-16T05:04:09.705Z,24.77
2022-12-16T05:06:57.786Z,30.95
2022-12-16T05:09:44.115Z,27.05
2022-12-16T05:12:30.091Z,27.95
2022-12-16T05:15:16.081Z,25.67
2022-12-16T05:18:02.027Z,32.03
2022-12-16T05:20:48.169Z,27.20
2022-12-16T05:23:34.501Z,25.48
2022-12-16T05:26:21.468Z,26.90
2022-12-16T05:29:07.527Z,27.95
2022-12-16T05:34:57.355Z,25.60
2022-12-16T05:37:43.556Z,29.15
2022-12-16T05:40:30.749Z,27.38
2022-12-16T05:43:17.199Z,28.23
2022-12-16T05:46:03.508Z,28.52
2022-12-16T05:48:49.738Z,30.13
2022-12-16T05:51:35.790Z,30.90
2022-12-16T05:54:22.443Z,31.00
2022-12-16T05:57:08.445Z,31.63
2022-12-16T05:59:54.728Z,32.42
2022-12-16T06:02:42.439Z,31.35
2022-12-16T06:05:39.514Z,36.60
2022-12-16T06:08:25.956Z,33.50
2022-12-16T06:11:25.782Z,33.38
2022-12-16T06:14:11.833Z,36.10
2022-12-16T06:16:58.005Z,37.17
2022-12-16T06:19:44.430Z,37.47
2022-12-16T06:22:30.524Z,39.38
2022-12-16T06:25:16.674Z,38.35
2022-12-16T06:28:07.788Z,37.13
2022-12-16T06:30:54.239Z,40.67
2022-12-16T06:33:42.352Z,35.30
2022-12-16T06:36:32.478Z,37.97
2022-12-16T06:39:18.488Z,36.45
2022-12-16T06:42:04.388Z,40.38
2022-12-16T06:44:50.372Z,38.47
2022-12-16T06:47:36.318Z,42.13
2022-12-16T06:50:22.907Z,41.17
2022-12-16T06:53:08.919Z,42.35
2022-12-16T06:55:55.481Z,42.05
2022-12-16T06:58:41.986Z,44.28
2022-12-16T07:01:28.278Z,42.97
2022-12-16T07:04:14.221Z,41.22
2022-12-16T07:07:00.386Z,45.33
2022-12-16T07:09:46.328Z,41.95
2022-12-16T07:12:32.508Z,41.03
2022-12-16T07:15:18.681Z,41.63
2022-12-16T07:18:04.714Z,40.22
2022-12-16T07:20:50.818Z,48.95
2022-12-16T07:23:36.901Z,46.63
2022-12-16T07:26:22.985Z,48.92
2022-12-16T07:29:09.137Z,43.60
2022-12-16T07:31:55.183Z,42.13
2022-12-16T07:34:43.800Z,36.42
2022-12-16T07:37:33.256Z,40.42
2022-12-16T07:40:19.495Z,40.50
2022-12-16T07:43:06.158Z,45.53
2022-12-16T07:45:52.335Z,40.65
2022-12-16T07:48:39.255Z,40.47
2022-12-16T07:51:25.413Z,40.88
2022-12-16T07:54:11.312Z,42.20
2022-12-16T07:56:57.523Z,41.97
2022-12-16T07:59:43.699Z,44.88
2022-12-16T08:02:29.956Z,41.85
2022-12-16T08:05:16.180Z,38.13
2022-12-16T08:08:02.664Z,41.63
2022-12-16T08:10:48.767Z,43.20
2022-12-16T08:13:35.715Z,39.22
2022-12-16T08:16:22.146Z,44.70
2022-12-16T08:27:36.523Z,38.25
2022-12-16T08:30:23.030Z,38.92
2022-12-16T08:33:18.272Z,39.42
2022-12-16T08:36:06.558Z,54.45
2022-12-16T08:38:52.754Z,36.70
2022-12-16T08:41:39.556Z,37.33
2022-12-16T08:44:27.412Z,44.78
2022-12-16T08:49:26.312Z,39.55
2022-12-16T08:55:00.578Z,38.60
2022-12-16T08:57:48.012Z,41.58
